createdAt,value
2023-05-25T00:01:31.096Z,99254.53
2023-05-25T00:04:00.506Z,99267.28
2023-05-25T00:06:27.796Z,99262.75
2023-05-25T00:08:55.525Z,99260.91
2023-05-25T00:11:23.381Z,99262.75
2023-05-25T00:13:50.360Z,99260.91
2023-05-25T00:16:16.742Z,99259.28
2023-05-25T00:18:43.343Z,99261.16
2023-05-25T00:21:10.614Z,99257.66
2023-05-25T00:23:36.968Z,99262.16
2023-05-25T00:26:03.353Z,99262.97
2023-05-25T00:28:29.748Z,99254.19
2023-05-25T00:30:56.370Z,99260.56
2023-05-25T00:33:22.864Z,99259.75
2023-05-25T00:35:49.708Z,99256.28
2023-05-25T00:38:18.757Z,99267.97
2023-05-25T00:40:45.334Z,99267.97
2023-05-25T00:43:11.778Z,99262.84
2023-05-25T00:45:38.335Z,99264.72
2023-05-25T00:48:05.007Z,99255.13
2023-05-25T00:50:41.887Z,99258.00
2023-05-25T00:53:08.712Z,99255.00
2023-05-25T00:55:41.852Z,99267.03
2023-05-25T00:58:08.413Z,99262.53
2023-05-25T01:00:37.458Z,99260.06
2023-05-25T01:03:04.660Z,99253.94
2023-05-25T01:05:31.074Z,99260.06
2023-05-25T01:07:57.430Z,99260.31
2023-05-25T01:10:23.794Z,99266.69
2023-05-25T01:12:50.568Z,99269.34
2023-05-25T01:15:16.935Z,99267.50
2023-05-25T01:17:43.763Z,99266.69
2023-05-25T01:20:12.039Z,99262.16
2023-05-25T01:22:43.279Z,99267.50
2023-05-25T01:25:13.649Z,99264.03
2023-05-25T01:27:41.133Z,99268.28
2023-05-25T01:30:08.513Z,99265.88
2023-05-25T01:32:35.357Z,99261.56
2023-05-25T01:35:02.151Z,99266.09
2023-05-25T01:37:28.623Z,99263.44
2023-05-25T01:39:55.103Z,99261.81
2023-05-25T01:42:21.469Z,99256.50
2023-05-25T01:44:47.818Z,99255.94
2023-05-25T01:47:33.028Z,99259.41
2023-05-25T01:50:14.637Z,99258.78
2023-05-25T01:52:41.971Z,99258.00
2023-05-25T01:55:08.799Z,99255.34
2023-05-25T01:57:36.082Z,99258.78
2023-05-25T02:00:03.169Z,99257.19
2023-05-25T02:02:29.613Z,99257.44
2023-05-25T02:04:56.218Z,99258.78
2023-05-25T02:07:22.739Z,99256.03
2023-05-25T02:09:49.103Z,99255.00
2023-05-25T02:12:15.487Z,99261.72
2023-05-25T02:14:41.916Z,99253.50
2023-05-25T02:17:08.328Z,99257.22
2023-05-25T02:19:34.922Z,99249.44
2023-05-25T02:22:01.295Z,99251.09
2023-05-25T02:24:27.717Z,99245.53
2023-05-25T02:26:54.077Z,99247.38
2023-05-25T02:29:20.502Z,99248.53
2023-05-25T02:31:47.295Z,99243.91
2023-05-25T02:34:13.874Z,99245.75
2023-05-25T02:36:43.310Z,99254.56
2023-05-25T02:39:10.195Z,99253.94
2023-05-25T02:41:37.101Z,99256.03
2023-05-25T02:44:04.088Z,99252.78
2023-05-25T02:46:30.546Z,99255.25
2023-05-25T02:48:57.180Z,99252.34
2023-05-25T02:51:23.598Z,99253.94
2023-05-25T02:53:50.581Z,99255.81
2023-05-25T02:56:16.952Z,99262.53
2023-05-25T02:58:43.318Z,99260.69
2023-05-25T03:01:10.916Z,99257.78
2023-05-25T03:03:38.684Z,99261.03
2023-05-25T03:06:05.122Z,99258.94
2023-05-25T03:08:31.507Z,99258.13
2023-05-25T03:10:57.870Z,99257.88
2023-05-25T03:13:24.483Z,99265.88
2023-05-25T03:15:51.050Z,99267.47
2023-05-25T03:18:17.443Z,99272.59
2023-05-25T03:20:44.071Z,99272.34
2023-05-25T03:23:10.571Z,99275.81
2023-05-25T03:25:36.952Z,99284.16
2023-05-25T03:28:03.429Z,99281.50
2023-05-25T03:30:30.531Z,99282.53
2023-05-25T03:32:57.272Z,99284.97
2023-05-25T03:35:23.680Z,99286.81
2023-05-25T03:37:50.074Z,99280.91
2023-05-25T03:40:16.472Z,99278.25
2023-05-25T03:42:43.534Z,99287.25
2023-05-25T03:45:10.136Z,99287.50
2023-05-25T03:47:36.614Z,99300.00
2023-05-25T03:50:07.069Z,99299.19
2023-05-25T03:52:33.435Z,99293.06
2023-05-25T03:55:01.762Z,99293.88
2023-05-25T03:57:28.611Z,99294.06
2023-05-25T03:59:55.363Z,99295.13
2023-05-25T04:02:22.200Z,99285.97
2023-05-25T04:04:50.919Z,99292.72
2023-05-25T04:07:18.781Z,99303.34
2023-05-25T04:09:45.158Z,99304.16
2023-05-25T04:12:11.573Z,99305.75
2023-05-25T04:14:37.960Z,99306.34
2023-05-25T04:17:04.422Z,99305.06
2023-05-25T04:19:30.807Z,99306.47
2023-05-25T04:21:57.392Z,99312.38
2023-05-25T04:24:23.779Z,99313.41
2023-05-25T04:26:50.339Z,99315.84
2023-05-25T04:29:17.332Z,99316.63
2023-05-25T04:31:45.751Z,99315.84
2023-05-25T04:34:14.450Z,99325.44
2023-05-25T04:36:42.537Z,99320.34
2023-05-25T04:39:08.997Z,99320.09
2023-05-25T04:41:35.947Z,99323.81
2023-05-25T04:44:09.821Z,99327.28
2023-05-25T04:46:40.716Z,99341.63
2023-05-25T04:49:08.475Z,99333.06
2023-05-25T04:51:35.787Z,99324.50
2023-05-25T04:54:02.350Z,99321.84
2023-05-25T04:56:28.817Z,99325.31
2023-05-25T04:58:55.181Z,99336.75
2023-05-25T05:01:21.571Z,99334.94
2023-05-25T05:03:47.959Z,99346.59
2023-05-25T05:06:14.388Z,99344.72
2023-05-25T05:08:41.695Z,99351.09
2023-05-25T05:11:08.165Z,99344.16
2023-05-25T05:13:34.540Z,99352.16
2023-05-25T05:16:01.234Z,99344.97
2023-05-25T05:18:29.139Z,99351.34
2023-05-25T05:20:55.672Z,99365.44
2023-05-25T05:23:22.071Z,99359.06
2023-05-25T05:25:48.433Z,99368.66
2023-05-25T05:28:15.063Z,99366.00
2023-05-25T05:30:41.481Z,99365.00
2023-05-25T05:33:07.897Z,99371.56
2023-05-25T05:35:34.288Z,99375.03
2023-05-25T05:38:00.657Z,99375.03
2023-05-25T05:40:27.252Z,99376.09
2023-05-25T05:42:53.630Z,99376.88
2023-05-25T05:45:19.988Z,99384.06
2023-05-25T05:47:46.478Z,99383.00
2023-05-25T05:50:12.848Z,99381.97
2023-05-25T05:52:39.216Z,99384.63
2023-05-25T05:55:06.320Z,99383.81
2023-05-25T05:57:32.720Z,99387.66
2023-05-25T05:59:59.220Z,99388.69
2023-05-25T06:02:25.829Z,99390.31
2023-05-25T06:04:52.280Z,99393.56
2023-05-25T06:07:18.666Z,99395.44
2023-05-25T06:09:45.063Z,99400.75
2023-05-25T06:12:11.436Z,99405.03
2023-05-25T06:14:37.816Z,99400.75
2023-05-25T06:17:04.340Z,99405.81
2023-05-25T06:19:30.901Z,99413.00
2023-05-25T06:21:57.286Z,99413.00
2023-05-25T06:24:23.686Z,99418.88
2023-05-25T06:26:50.062Z,99418.88
2023-05-25T06:29:17.366Z,99420.75
2023-05-25T06:31:43.971Z,99425.81
2023-05-25T06:34:10.430Z,99433.00
2023-05-25T06:36:37.155Z,99430.34
2023-05-25T06:39:03.575Z,99429.53
2023-05-25T06:41:30.734Z,99426.31
2023-05-25T06:43:57.121Z,99431.16
2023-05-25T06:46:23.577Z,99439.13
2023-05-25T06:48:50.042Z,99440.28
2023-05-25T06:51:17.189Z,99445.38
2023-05-25T06:53:44.469Z,99437.84
2023-05-25T06:56:11.034Z,99440.50
2023-05-25T06:58:37.394Z,99440.72
2023-05-25T07:01:03.854Z,99444.13
2023-05-25T07:03:30.307Z,99454.41
2023-05-25T07:05:56.689Z,99450.72
2023-05-25T07:08:23.067Z,99447.47
2023-05-25T07:10:50.305Z,99450.13
2023-05-25T07:13:16.954Z,99445.41
2023-05-25T07:15:43.680Z,99451.53
2023-05-25T07:18:12.595Z,99452.78
2023-05-25T07:20:42.032Z,99450.72
2023-05-25T07:23:10.061Z,99455.22
2023-05-25T07:25:36.567Z,99458.91
2023-05-25T07:28:02.996Z,99452.00
2023-05-25T07:30:30.133Z,99454.66
2023-05-25T07:32:58.204Z,99451.19
2023-05-25T07:35:24.722Z,99456.25
2023-05-25T07:38:00.889Z,99459.97
2023-05-25T07:40:27.593Z,99460.22
2023-05-25T07:42:54.066Z,99456.94
2023-05-25T07:45:20.995Z,99463.91
2023-05-25T07:47:47.549Z,99470.84
2023-05-25T07:50:14.263Z,99473.72
2023-05-25T07:52:40.690Z,99466.09
2023-05-25T07:55:07.488Z,99472.09
2023-05-25T07:57:34.141Z,99468.41
2023-05-25T08:00:00.550Z,99478.34
2023-05-25T08:02:27.039Z,99473.03
2023-05-25T08:04:53.809Z,99471.66
2023-05-25T08:07:20.867Z,99468.19
2023-05-25T08:09:47.239Z,99473.28
2023-05-25T08:12:34.207Z,99471.41
2023-05-25T08:14:59.964Z,99475.13
2023-05-25T08:17:26.726Z,99473.28
2023-05-25T08:19:54.153Z,99480.44
2023-05-25T08:22:20.522Z,99479.63
2023-05-25T08:24:46.973Z,99483.53
2023-05-25T08:27:13.378Z,99476.84
2023-05-25T08:29:39.752Z,99479.75
2023-05-25T08:32:06.152Z,99484.03
2023-05-25T08:34:32.549Z,99479.75
2023-05-25T08:36:59.039Z,99488.31
2023-05-25T08:39:25.621Z,99488.13
2023-05-25T08:41:52.058Z,99491.44
2023-05-25T08:44:18.507Z,99490.78
2023-05-25T08:46:46.162Z,99491.59
2023-05-25T08:49:13.267Z,99494.25
2023-05-25T08:51:43.370Z,99490.53
2023-05-25T08:54:10.348Z,99493.63
2023-05-25T08:56:41.811Z,99495.13
2023-05-25T08:59:28.504Z,99502.78
2023-05-25T09:02:27.640Z,99503.59
2023-05-25T09:04:54.045Z,99500.81
2023-05-25T09:07:20.433Z,99500.38
2023-05-25T09:09:47.344Z,99495.63
2023-05-25T09:12:13.725Z,99496.09
2023-05-25T09:14:45.651Z,99498.41
2023-05-25T09:17:13.386Z,99495.19
2023-05-25T09:19:39.990Z,99497.59
2023-05-25T09:22:15.038Z,99505.59
2023-05-25T09:24:44.281Z,99507.22
2023-05-25T09:27:11.128Z,99499.25
2023-05-25T09:29:37.783Z,99501.69
2023-05-25T09:32:04.619Z,99501.69
2023-05-25T09:34:34.005Z,99508.63
2023-05-25T09:37:04.023Z,99513.13
2023-05-25T09:39:30.583Z,99507.81
2023-05-25T09:41:57.339Z,99509.00
2023-05-25T09:44:23.732Z,99512.72
2023-05-25T09:46:50.091Z,99514.53
2023-05-25T09:49:16.517Z,99515.56
2023-05-25T09:51:42.917Z,99514.75
2023-05-25T09:54:09.632Z,99514.75
2023-05-25T09:56:36.037Z,99514.75
2023-05-25T09:59:02.824Z,99516.84
2023-05-25T10:01:29.237Z,99517.81
2023-05-25T10:04:05.539Z,99517.56
2023-05-25T10:06:33.308Z,99514.69
2023-05-25T10:09:00.128Z,99515.25
2023-05-25T10:11:26.898Z,99520.34
2023-05-25T10:13:53.418Z,99525.47
2023-05-25T10:16:19.885Z,99525.69
2023-05-25T10:18:46.241Z,99525.22
2023-05-25T10:21:12.641Z,99527.66
2023-05-25T10:23:45.549Z,99529.06
2023-05-25T10:26:13.049Z,99532.91
2023-05-25T10:28:39.992Z,99530.22
2023-05-25T10:31:06.937Z,99527.56
2023-05-25T10:33:33.863Z,99527.09
2023-05-25T10:36:09.089Z,99518.91
2023-05-25T10:38:37.392Z,99533.03
2023-05-25T10:41:04.183Z,99532.22
2023-05-25T10:43:30.556Z,99529.88
2023-05-25T10:45:57.551Z,99535.94
2023-05-25T10:48:24.525Z,99530.16
2023-05-25T10:50:51.257Z,99531.41
2023-05-25T10:53:20.782Z,99537.53
2023-05-25T10:55:53.290Z,99543.69
2023-05-25T10:58:22.964Z,99534.66
2023-05-25T11:01:02.369Z,99539.53
2023-05-25T11:03:44.505Z,99536.16
2023-05-25T11:06:11.614Z,99537.56
2023-05-25T11:08:56.724Z,99525.63
2023-05-25T11:11:24.013Z,99533.75
2023-05-25T11:13:50.498Z,99532.94
2023-05-25T11:16:19.979Z,99536.19
2023-05-25T11:18:59.523Z,99536.75
2023-05-25T11:21:41.118Z,99535.16
2023-05-25T11:24:17.003Z,99534.09
2023-05-25T11:26:54.079Z,99529.00
2023-05-25T11:29:20.837Z,99534.91
2023-05-25T11:31:49.399Z,99525.88
2023-05-25T11:34:15.802Z,99524.03
2023-05-25T11:36:42.202Z,99522.75
2023-05-25T11:39:20.632Z,99518.59
2023-05-25T11:41:56.011Z,99513.63
2023-05-25T11:44:27.238Z,99512.31
2023-05-25T11:46:54.450Z,99506.78
2023-05-25T11:49:21.243Z,99513.13
2023-05-25T11:51:47.630Z,99515.00
2023-05-25T11:54:26.672Z,99513.38
2023-05-25T11:56:53.865Z,99502.47
2023-05-25T11:59:20.239Z,99506.53
2023-05-25T12:01:55.074Z,99508.97
2023-05-25T12:04:23.873Z,99512.44
2023-05-25T12:06:50.777Z,99508.53
2023-05-25T12:09:21.892Z,99507.50
2023-05-25T12:11:48.329Z,99507.25
2023-05-25T12:14:14.748Z,99495.47
2023-05-25T12:16:41.361Z,99496.59
2023-05-25T12:19:07.948Z,99511.31
2023-05-25T12:21:34.664Z,99504.13
2023-05-25T12:24:02.799Z,99505.19
2023-05-25T12:26:29.228Z,99503.44
2023-05-25T12:28:59.536Z,99502.50
2023-05-25T12:31:26.886Z,99503.56
2023-05-25T12:34:25.828Z,99503.31
2023-05-25T12:36:52.810Z,99496.13
2023-05-25T12:39:31.977Z,99502.34
2023-05-25T12:42:04.995Z,99499.81
2023-05-25T12:44:34.860Z,99500.84
2023-05-25T12:47:11.857Z,99496.19
2023-05-25T12:49:38.577Z,99489.13
2023-05-25T12:52:05.198Z,99495.47
2023-05-25T12:54:33.109Z,99501.16
2023-05-25T12:56:59.533Z,99502.84
2023-05-25T12:59:25.889Z,99498.44
2023-05-25T13:01:52.703Z,99500.16
2023-05-25T13:04:19.124Z,99499.91
2023-05-25T13:06:45.509Z,99510.72
2023-05-25T13:09:14.415Z,99501.69
2023-05-25T13:11:41.093Z,99495.31
2023-05-25T13:14:07.487Z,99499.13
2023-05-25T13:16:33.901Z,99501.56
2023-05-25T13:19:00.868Z,99488.47
2023-05-25T13:21:27.226Z,99498.09
2023-05-25T13:23:53.838Z,99485.31
2023-05-25T13:26:20.334Z,99493.31
2023-05-25T13:28:46.801Z,99494.16
2023-05-25T13:31:13.162Z,99485.91
2023-05-25T13:33:39.530Z,99490.44
2023-05-25T13:36:09.071Z,99488.81
2023-05-25T13:38:35.793Z,99486.16
2023-05-25T13:41:02.301Z,99481.63
2023-05-25T13:43:28.731Z,99486.38
2023-05-25T13:45:55.179Z,99481.84
2023-05-25T13:48:21.679Z,99482.91
2023-05-25T13:50:48.073Z,99474.91
2023-05-25T13:53:14.440Z,99473.06
2023-05-25T13:55:40.832Z,99479.19
2023-05-25T13:58:07.207Z,99475.50
2023-05-25T14:00:33.852Z,99474.66
2023-05-25T14:03:00.401Z,99476.31
2023-05-25T14:05:26.993Z,99469.03
2023-05-25T14:07:55.672Z,99468.53
2023-05-25T14:10:22.726Z,99457.56
2023-05-25T14:12:49.212Z,99468.53
2023-05-25T14:15:15.882Z,99471.44
2023-05-25T14:17:42.337Z,99465.66
2023-05-25T14:20:09.614Z,99463.78
2023-05-25T14:22:36.023Z,99463.19
2023-05-25T14:25:02.440Z,99462.41
2023-05-25T14:27:28.868Z,99465.66
2023-05-25T14:29:55.351Z,99460.53
2023-05-25T14:32:22.050Z,99463.44
2023-05-25T14:34:48.454Z,99461.84
2023-05-25T14:37:14.824Z,99467.16
2023-05-25T14:39:41.226Z,99464.72
2023-05-25T14:42:07.628Z,99468.41
2023-05-25T14:44:33.999Z,99472.13
2023-05-25T14:47:00.506Z,99470.28
2023-05-25T14:49:27.696Z,99473.28
2023-05-25T14:51:54.258Z,99462.41
2023-05-25T14:54:20.960Z,99467.50
2023-05-25T14:56:47.609Z,99465.88
2023-05-25T14:59:13.976Z,99462.41
2023-05-25T15:01:40.547Z,99469.13
2023-05-25T15:04:08.513Z,99472.59
2023-05-25T15:06:36.792Z,99466.47
2023-05-25T15:09:03.232Z,99461.69
2023-05-25T15:11:29.659Z,99464.84
2023-05-25T15:13:57.819Z,99466.66
2023-05-25T15:16:24.246Z,99464.84
2023-05-25T15:18:51.675Z,99464.59
2023-05-25T15:21:18.076Z,99460.31
2023-05-25T15:23:44.442Z,99459.53
2023-05-25T15:26:11.677Z,99451.75
2023-05-25T15:28:38.081Z,99449.88
2023-05-25T15:31:04.489Z,99445.84
2023-05-25T15:33:47.163Z,99452.53
2023-05-25T15:36:16.330Z,99444.78
2023-05-25T15:38:43.347Z,99449.66
2023-05-25T15:41:10.273Z,99442.81
2023-05-25T15:43:36.655Z,99442.03
2023-05-25T15:46:03.072Z,99443.06
2023-05-25T15:48:29.484Z,99440.16
2023-05-25T15:50:55.851Z,99440.53
2023-05-25T15:53:22.281Z,99440.41
2023-05-25T15:55:48.640Z,99434.03
2023-05-25T15:58:16.690Z,99434.59
2023-05-25T16:00:43.316Z,99434.28
2023-05-25T16:03:09.726Z,99432.97
2023-05-25T16:05:36.133Z,99437.97
2023-05-25T16:08:02.495Z,99440.06
2023-05-25T16:10:28.894Z,99438.44
2023-05-25T16:12:55.333Z,99438.44
2023-05-25T16:15:22.913Z,99439.25
2023-05-25T16:17:49.266Z,99428.34
2023-05-25T16:20:15.721Z,99422.47
2023-05-25T16:22:42.107Z,99426.63
2023-05-25T16:25:08.635Z,99424.41
2023-05-25T16:27:35.039Z,99430.44
2023-05-25T16:30:01.467Z,99433.13
2023-05-25T16:32:29.419Z,99432.88
2023-05-25T16:34:55.896Z,99420.59
2023-05-25T16:37:22.267Z,99424.88
2023-05-25T16:39:48.637Z,99417.69
2023-05-25T16:42:14.995Z,99424.06
2023-05-25T16:44:41.376Z,99422.47
2023-05-25T16:47:07.765Z,99419.00
2023-05-25T16:49:34.137Z,99418.88
2023-05-25T16:52:02.526Z,99417.63
2023-05-25T16:54:29.029Z,99417.13
2023-05-25T16:56:55.454Z,99412.28
2023-05-25T16:59:21.863Z,99408.91
2023-05-25T17:01:48.266Z,99420.38
2023-05-25T17:04:14.830Z,99412.16
2023-05-25T17:06:41.241Z,99412.97
2023-05-25T17:09:08.617Z,99416.78
2023-05-25T17:11:34.986Z,99414.69
2023-05-25T17:14:01.581Z,99411.22
2023-05-25T17:16:28.070Z,99419.44
2023-05-25T17:18:54.513Z,99411.22
2023-05-25T17:21:20.890Z,99413.88
2023-05-25T17:23:48.717Z,99413.88
2023-05-25T17:26:15.085Z,99414.69
2023-05-25T17:28:41.775Z,99415.97
2023-05-25T17:31:09.549Z,99416.53
2023-05-25T17:33:36.070Z,99415.97
2023-05-25T17:36:02.458Z,99407.88
2023-05-25T17:38:28.853Z,99417.72
2023-05-25T17:40:55.847Z,99421.19
2023-05-25T17:43:22.258Z,99420.59
2023-05-25T17:45:48.727Z,99418.97
2023-05-25T17:48:16.222Z,99420.59
2023-05-25T17:50:42.595Z,99421.09
2023-05-25T17:53:08.958Z,99419.22
2023-05-25T17:55:35.339Z,99430.22
2023-05-25T17:58:01.719Z,99427.88
2023-05-25T18:00:28.112Z,99417.25
2023-05-25T18:02:54.608Z,99421.19
2023-05-25T18:05:21.035Z,99423.38
2023-05-25T18:07:47.408Z,99419.09
2023-05-25T18:10:14.723Z,99423.38
2023-05-25T18:12:41.360Z,99426.28
2023-05-25T18:15:08.185Z,99421.75
2023-05-25T18:17:34.629Z,99424.66
2023-05-25T18:20:01.048Z,99426.53
2023-05-25T18:22:27.457Z,99426.53
2023-05-25T18:24:53.833Z,99433.47
2023-05-25T18:27:21.586Z,99428.13
2023-05-25T18:29:48.240Z,99429.19
2023-05-25T18:32:14.630Z,99432.41
2023-05-25T18:34:41.326Z,99431.59
2023-05-25T18:37:07.712Z,99432.91
2023-05-25T18:39:34.077Z,99440.88
2023-05-25T18:42:00.816Z,99439.03
2023-05-25T18:44:28.427Z,99435.56
2023-05-25T18:46:56.565Z,99436.13
2023-05-25T18:49:26.235Z,99434.50
2023-05-25T18:51:52.961Z,99439.47
2023-05-25T18:54:21.063Z,99434.97
2023-05-25T18:56:47.422Z,99444.25
2023-05-25T18:59:13.823Z,99443.28
2023-05-25T19:01:40.254Z,99443.88
2023-05-25T19:04:06.727Z,99443.09
2023-05-25T19:06:33.216Z,99445.97
2023-05-25T19:08:59.601Z,99442.28
2023-05-25T19:11:26.029Z,99441.47
2023-05-25T19:13:52.404Z,99449.66
2023-05-25T19:16:18.975Z,99452.56
2023-05-25T19:18:45.470Z,99448.06
2023-05-25T19:21:11.865Z,99450.47
2023-05-25T19:23:38.286Z,99448.84
2023-05-25T19:26:04.642Z,99448.84
2023-05-25T19:28:31.033Z,99449.66
2023-05-25T19:30:57.395Z,99453.94
2023-05-25T19:33:23.813Z,99461.94
2023-05-25T19:35:50.468Z,99460.91
2023-05-25T19:38:18.152Z,99458.25
2023-05-25T19:40:44.506Z,99467.25
2023-05-25T19:43:11.501Z,99466.44
2023-05-25T19:45:37.912Z,99469.91
2023-05-25T19:48:04.352Z,99474.22
2023-05-25T19:50:30.888Z,99477.69
2023-05-25T19:53:00.056Z,99479.75
2023-05-25T19:55:26.746Z,99479.31
2023-05-25T19:57:53.112Z,99488.81
2023-05-25T20:00:26.198Z,99482.91
2023-05-25T20:02:53.946Z,99481.06
2023-05-25T20:05:20.446Z,99476.19
2023-05-25T20:07:46.905Z,99474.31
2023-05-25T20:10:13.268Z,99467.63
2023-05-25T20:12:39.721Z,99474.22
2023-05-25T20:15:06.216Z,99479.53
2023-05-25T20:17:32.573Z,99478.16
2023-05-25T20:20:00.679Z,99472.84
2023-05-25T20:22:28.007Z,99487.97
2023-05-25T20:24:58.007Z,99485.31
2023-05-25T20:27:24.714Z,99484.50
2023-05-25T20:29:51.261Z,99483.94
2023-05-25T20:32:17.675Z,99482.53
2023-05-25T20:34:44.099Z,99482.31
2023-05-25T20:37:10.485Z,99478.03
2023-05-25T20:39:36.863Z,99485.19
2023-05-25T20:42:03.282Z,99481.72
2023-05-25T20:44:31.815Z,99487.50
2023-05-25T20:46:58.192Z,99489.13
2023-05-25T20:49:26.010Z,99489.13
2023-05-25T20:51:52.576Z,99491.00
2023-05-25T20:54:18.964Z,99486.72
2023-05-25T20:56:46.420Z,99491.19
2023-05-25T20:59:12.846Z,99486.91
2023-05-25T21:01:39.262Z,99489.56
2023-05-25T21:04:05.987Z,99489.81
2023-05-25T21:06:32.440Z,99490.63
2023-05-25T21:08:58.806Z,99496.19
2023-05-25T21:11:26.258Z,99497.00
2023-05-25T21:13:52.641Z,99493.72
2023-05-25T21:16:19.334Z,99491.31
2023-05-25T21:18:45.748Z,99500.34
2023-05-25T21:21:12.137Z,99499.75
2023-05-25T21:23:38.537Z,99509.38
2023-05-25T21:26:04.907Z,99511.19
2023-05-25T21:28:32.691Z,99506.22
2023-05-25T21:30:59.073Z,99515.13
2023-05-25T21:33:25.577Z,99511.66
2023-05-25T21:35:51.943Z,99510.88
2023-05-25T21:38:18.335Z,99515.56
2023-05-25T21:40:44.695Z,99508.63
2023-05-25T21:43:11.116Z,99514.75
2023-05-25T21:45:37.513Z,99506.75
2023-05-25T21:48:04.665Z,99510.47
2023-05-25T21:50:31.157Z,99504.34
2023-05-25T21:52:57.537Z,99500.63
2023-05-25T21:55:23.914Z,99510.22
2023-05-25T21:57:50.281Z,99504.34
2023-05-25T22:00:16.743Z,99504.34
2023-05-25T22:02:43.168Z,99506.19
2023-05-25T22:05:09.570Z,99503.53
2023-05-25T22:07:35.956Z,99508.84
2023-05-25T22:10:02.349Z,99514.38
2023-05-25T22:12:28.774Z,99516.22
2023-05-25T22:14:55.166Z,99519.13
2023-05-25T22:17:21.632Z,99528.16
2023-05-25T22:19:59.023Z,99525.50
2023-05-25T22:22:33.536Z,99519.38
2023-05-25T22:24:59.936Z,99519.38
2023-05-25T22:27:26.339Z,99519.38
2023-05-25T22:29:52.722Z,99525.69
2023-05-25T22:32:19.098Z,99520.97
2023-05-25T22:34:46.171Z,99517.72
2023-05-25T22:37:13.881Z,99523.88
2023-05-25T22:39:40.261Z,99521.44
2023-05-25T22:42:09.545Z,99522.22
2023-05-25T22:44:36.446Z,99530.00
2023-05-25T22:47:03.026Z,99526.75
2023-05-25T22:49:29.457Z,99524.31
2023-05-25T22:51:55.887Z,99527.78
2023-05-25T22:54:22.251Z,99525.94
2023-05-25T22:56:48.617Z,99534.16
2023-05-25T22:59:14.967Z,99530.88
2023-05-25T23:01:41.399Z,99527.66
2023-05-25T23:04:08.952Z,99527.91
2023-05-25T23:06:36.557Z,99533.41
2023-05-25T23:09:02.983Z,99528.09
2023-05-25T23:11:29.364Z,99524.88
2023-05-25T23:13:55.733Z,99529.38
2023-05-25T23:16:22.615Z,99532.03
2023-05-25T23:18:49.099Z,99533.09
2023-05-25T23:21:15.711Z,99536.75
2023-05-25T23:23:42.063Z,99536.75
2023-05-25T23:26:08.448Z,99535.94
2023-05-25T23:28:34.916Z,99533.28
2023-05-25T23:31:01.330Z,99535.38
2023-05-25T23:33:29.134Z,99537.22
2023-05-25T23:35:55.529Z,99531.09
2023-05-25T23:38:22.177Z,99532.09
2023-05-25T23:40:48.564Z,99535.56
2023-05-25T23:43:15.113Z,99529.44
2023-05-25T23:45:41.563Z,99532.09
2023-05-25T23:48:07.974Z,99534.78
2023-05-25T23:50:35.603Z,99534.78
2023-05-25T23:53:01.981Z,99531.53
2023-05-25T23:55:28.416Z,99530.72
2023-05-25T23:57:54.851Z,99528.88
